• Join FlightAware (Why Join?)
  • Login
  • US Flag 
Gobble Gobble! 
12:33AM EST


 

Airport Tracker/Info


-or-


 

Live Flight TrackerFlight Track Log ✈ VTS30 ✈ 06-May-2013 ✈ PAEI / EIL - PAED / EDF

Flight Track Log - Related Links

Times and Time Zones

All times are in EDT time to prevent confusion due to time zone crossing. See the VTS30 flight status page for this flight to view local times or setup timezone preferences in your user account.

Time Position Orientation Groundspeed Altitude Reporting Facility
EDT Latitude Longitude Course Direction KTS MPH feet Rate Location/Type
02:23PM 64.7333 -147.2333 247° West 160 184 3,800  Level Anchorage Center
02:24PM 64.7167 -147.3333 249° West 150 173 5,000 1,200 Climbing Anchorage Center
02:25PM 64.7000 -147.4167 245° Southwest 150 173 6,200 1,200 Climbing Anchorage Center
02:26PM 64.6667 -147.5000 227° Southwest 160 184 7,500 1,140 Climbing Anchorage Center
02:27PM 64.5147 -147.8007 243° Southwest  Level FlightAware Approximate
02:27PM 64.6500 -147.5833 245° Southwest 160 184 8,600  Level Anchorage Center
02:28PM 64.4911 -147.9161 247° West  Level FlightAware Approximate
02:28PM 64.6167 -147.6667 227° Southwest 180 207 9,500  Level Anchorage Center
02:29PM 64.4697 -148.0339 247° West  Level FlightAware Approximate
02:29PM 64.5833 -147.7833 236° Southwest 210 242 9,500  Level Anchorage Center
02:30PM 64.5500 -147.8833 232° Southwest 210 242 9,500  Level Anchorage Center
02:32PM 64.4809 -147.9285 245° Southwest  Level Estimated
02:34PM 64.3833 -148.2833 195° South 220 253 9,500  Level Anchorage Center
02:36PM 64.3141 -148.3276 195° South  Level FlightAware Approximate
02:36PM 64.2667 -148.3500 195° South 220 253 9,500  Level Anchorage Center
02:38PM 64.1991 -148.4006 195° South  Level FlightAware Approximate
02:39PM 64.2190 -148.3887 195° South  Level FlightAware Approximate
02:39PM 64.1000 -148.4667 197° South 220 253 9,500  Level Anchorage Center
02:40PM 64.0333 -148.5000 192° South 220 253 9,500  Level Anchorage Center
02:42PM 63.9655 -148.5477 197° South  Level FlightAware Approximate
02:42PM 63.9167 -148.5833 197° South 220 253 9,500  Level Anchorage Center
02:43PM 63.8500 -148.6167 192° South 230 265 9,500  Level Anchorage Center
02:45PM 63.8695 -148.6147 197° South  Level FlightAware Approximate
02:45PM 63.7333 -148.6833 194° South 230 265 9,500  Level Anchorage Center
02:47PM 63.6167 -148.7667 198° South 220 253 9,500  Level Anchorage Center
02:49PM 63.5489 -148.8074 195° South  Level FlightAware Approximate
02:50PM 63.4333 -148.8667 196° South 230 265 9,500  Level Anchorage Center
02:51PM 63.3833 -148.9000 197° South 220 253 9,500  Level Anchorage Center
02:52PM 63.3167 -148.9500 199° South 220 253 9,500  Level Anchorage Center
02:54PM 63.2494 -148.9942 196° South  Level FlightAware Approximate
02:55PM 63.1333 -149.0667 197° South 230 265 9,500  Level Anchorage Center
02:56PM 63.2188 -149.0135 196° South  Level FlightAware Approximate
02:56PM 63.0833 -149.1000 197° South 230 265 9,500  Level Anchorage Center
02:57PM 63.0333 -149.1167 189° South 220 253 9,500  Level Anchorage Center
02:59PM 62.9620 -149.1627 189° South  Level FlightAware Approximate
03:01PM 62.9184 -149.1878 197° South  Level FlightAware Approximate
03:03PM 62.6833 -149.3167 194° South 220 253 9,500  Level Anchorage Center
03:05PM 62.5869 -149.3811 197° South  Level FlightAware Approximate
03:06PM 62.6065 -149.3729 195° South  Level FlightAware Approximate
03:07PM 62.5558 -149.4032 195° South  Level FlightAware Approximate
03:07PM 62.4500 -149.4667 195° South 220 253 9,500  Level Anchorage Center
03:08PM 62.5050 -149.4325 194° South  Level FlightAware Approximate
03:08PM 62.4000 -149.5000 197° South 220 253 9,500  Level Anchorage Center
03:09PM 62.3333 -149.5333 193° South 210 242 9,500  Level Anchorage Center
03:10PM 62.2833 -149.5667 197° South 210 242 9,500  Level Anchorage Center
03:11PM 62.2167 -149.6000 193° South 220 253 9,500 -300 Level Anchorage Center
03:12PM 62.2466 -149.5779 195° South  Level FlightAware Approximate
03:12PM 62.1667 -149.6333 197° South 220 253 9,000  Level Anchorage Center
03:13PM 62.1957 -149.6062 195° South  Level FlightAware Approximate
03:13PM 62.1167 -149.6667 197° South 220 253 8,700  Level Anchorage Center
03:15PM 61.9833 -149.7333 193° South 220 253 8,000 -240 Descending Anchorage Center
03:16PM 61.9167 -149.7667 193° South 220 253 8,000  Level Anchorage Center
03:18PM 61.8191 -149.8194 194° South  Level FlightAware Approximate
03:25PM 61.4547 -149.9601 178° South  Level FlightAware Approximate
03:26PM 61.4013 -149.9556 178° South  Level FlightAware Approximate
03:27PM 61.3479 -149.9512 178° South  Level FlightAware Approximate
03:28PM 61.2945 -149.9500 180° South  Level FlightAware Approximate
03:29PM 61.2410 -149.9500 180° South  Level FlightAware Approximate
03:30PM 61.1876 -149.9500 180° South  Level FlightAware Approximate
03:31PM 61.1859 -149.8961 36° Northeast  Level FlightAware Approximate
03:32PM 61.2292 -149.8312 36° Northeast  Level FlightAware Approximate
03:33PM 61.2500 -149.8000 36° Northeast  Level FlightAware Approximate
03:34PM 61.2514 -149.8065 36° Northeast  Level Estimated
03:35PM 61.2500 -149.8000 36° Northeast  Level FlightAware Approximate
03:36PM 61.2514 -149.8065 36° Northeast  Level Estimated
03:37PM 61.2500 -149.8000 36° Northeast  Level FlightAware Approximate
03:38PM 61.2514 -149.8065 36° Northeast  Level Estimated
03:39PM 61.2500 -149.8000 36° Northeast  Level FlightAware Approximate
03:40PM 61.2514 -149.8065 36° Northeast  Level Estimated
03:41PM 61.2500 -149.8000 36° Northeast  Level FlightAware Approximate
03:42PM 61.2514 -149.8065 36° Northeast  Level Estimated
03:43PM 61.2500 -149.8000 36° Northeast  Level FlightAware Approximate
03:44PM 61.2514 -149.8065 36° Northeast  Level Estimated
03:45PM 61.2500 -149.8000 36° Northeast  Level FlightAware Approximate
03:46PM 61.2514 -149.8065 36° Northeast  Level Estimated
03:47PM 61.2500 -149.8000 36° Northeast  Level FlightAware Approximate
03:48PM 61.2514 -149.8065 36° Northeast  Level Estimated